sensor_id;sensor_type;location;lat;lon;timestamp;temperature;humidity
23283;DHT22;11810;51.178;3.878;2023-02-15T00:00:53;1.60;99.90
23283;DHT22;11810;51.178;3.878;2023-02-15T00:03:22;1.60;99.90
23283;DHT22;11810;51.178;3.878;2023-02-15T00:05:48;1.50;99.90
23283;DHT22;11810;51.178;3.878;2023-02-15T00:08:13;1.60;99.90
23283;DHT22;11810;51.178;3.878;2023-02-15T00:12:13;1.60;99.90
23283;DHT22;11810;51.178;3.878;2023-02-15T00:14:39;1.50;99.90
23283;DHT22;11810;51.178;3.878;2023-02-15T00:17:05;1.40;99.90
23283;DHT22;11810;51.178;3.878;2023-02-15T00:19:31;1.40;99.90
23283;DHT22;11810;51.178;3.878;2023-02-15T00:23:15;1.40;99.90
23283;DHT22;11810;51.178;3.878;2023-02-15T00:25:40;1.30;99.90
23283;DHT22;11810;51.178;3.878;2023-02-15T00:28:15;1.20;99.90
23283;DHT22;11810;51.178;3.878;2023-02-15T00:30:41;1.20;99.90
23283;DHT22;11810;51.178;3.878;2023-02-15T00:33:07;1.10;99.90
23283;DHT22;11810;51.178;3.878;2023-02-15T00:35:32;1.10;99.90
23283;DHT22;11810;51.178;3.878;2023-02-15T00:37:58;1.10;99.90
23283;DHT22;11810;51.178;3.878;2023-02-15T00:40:24;1.10;99.90
23283;DHT22;11810;51.178;3.878;2023-02-15T00:42:49;1.00;99.90
23283;DHT22;11810;51.178;3.878;2023-02-15T00:45:15;1.00;99.90
23283;DHT22;11810;51.178;3.878;2023-02-15T00:47:41;1.00;99.90
23283;DHT22;11810;51.178;3.878;2023-02-15T00:50:07;1.00;99.90
23283;DHT22;11810;51.178;3.878;2023-02-15T00:52:32;1.00;99.90
23283;DHT22;11810;51.178;3.878;2023-02-15T00:54:58;1.10;99.90
23283;DHT22;11810;51.178;3.878;2023-02-15T00:57:23;1.10;99.90
23283;DHT22;11810;51.178;3.878;2023-02-15T01:01:20;1.00;99.90
23283;DHT22;11810;51.178;3.878;2023-02-15T01:03:46;1.00;99.90
23283;DHT22;11810;51.178;3.878;2023-02-15T01:06:13;1.00;99.90
23283;DHT22;11810;51.178;3.878;2023-02-15T01:08:39;0.90;99.90
23283;DHT22;11810;51.178;3.878;2023-02-15T01:11:06;0.90;99.90
23283;DHT22;11810;51.178;3.878;2023-02-15T01:13:33;0.80;99.90
23283;DHT22;11810;51.178;3.878;2023-02-15T01:15:59;0.80;99.90
23283;DHT22;11810;51.178;3.878;2023-02-15T01:18:24;0.70;99.90
23283;DHT22;11810;51.178;3.878;2023-02-15T01:20:50;0.80;99.90
23283;DHT22;11810;51.178;3.878;2023-02-15T01:23:16;0.70;99.90
23283;DHT22;11810;51.178;3.878;2023-02-15T01:26:23;0.70;99.90
23283;DHT22;11810;51.178;3.878;2023-02-15T01:28:49;0.70;99.90
23283;DHT22;11810;51.178;3.878;2023-02-15T01:31:16;0.60;99.90
23283;DHT22;11810;51.178;3.878;2023-02-15T01:33:42;0.60;99.90
23283;DHT22;11810;51.178;3.878;2023-02-15T01:36:24;0.50;99.90
23283;DHT22;11810;51.178;3.878;2023-02-15T01:38:49;0.50;99.90
23283;DHT22;11810;51.178;3.878;2023-02-15T01:41:15;0.60;99.90
23283;DHT22;11810;51.178;3.878;2023-02-15T01:49:27;0.50;99.90
23283;DHT22;11810;51.178;3.878;2023-02-15T01:51:53;0.40;99.90
23283;DHT22;11810;51.178;3.878;2023-02-15T01:56:30;0.40;99.90
23283;DHT22;11810;51.178;3.878;2023-02-15T01:59:03;0.40;99.90
23283;DHT22;11810;51.178;3.878;2023-02-15T02:01:30;0.40;99.90
23283;DHT22;11810;51.178;3.878;2023-02-15T02:06:33;0.40;99.90
23283;DHT22;11810;51.178;3.878;2023-02-15T02:09:01;0.40;99.90
23283;DHT22;11810;51.178;3.878;2023-02-15T02:11:27;0.40;99.90
23283;DHT22;11810;51.178;3.878;2023-02-15T02:13:54;0.40;99.90
23283;DHT22;11810;51.178;3.878;2023-02-15T02:21:50;0.40;99.90
23283;DHT22;11810;51.178;3.878;2023-02-15T02:44:31;0.10;99.90
23283;DHT22;11810;51.178;3.878;2023-02-15T02:47:15;0.00;99.90
23283;DHT22;11810;51.178;3.878;2023-02-15T02:49:44;0.00;99.90
23283;DHT22;11810;51.178;3.878;2023-02-15T02:52:42;0.00;99.90
23283;DHT22;11810;51.178;3.878;2023-02-15T03:02:28;0.10;99.90
23283;DHT22;11810;51.178;3.878;2023-02-15T03:04:59;0.00;99.90
23283;DHT22;11810;51.178;3.878;2023-02-15T03:09:41;0.00;99.90
23283;DHT22;11810;51.178;3.878;2023-02-15T03:12:20;-0.10;99.90
23283;DHT22;11810;51.178;3.878;2023-02-15T03:15:18;0.00;99.90
23283;DHT22;11810;51.178;3.878;2023-02-15T03:17:48;0.00;99.90
23283;DHT22;11810;51.178;3.878;2023-02-15T03:20:21;-0.10;99.90
23283;DHT22;11810;51.178;3.878;2023-02-15T03:24:46;-0.10;99.90
23283;DHT22;11810;51.178;3.878;2023-02-15T03:27:22;-0.10;99.90
23283;DHT22;11810;51.178;3.878;2023-02-15T03:31:42;-0.20;99.90
23283;DHT22;11810;51.178;3.878;2023-02-15T03:34:12;-0.20;99.90
23283;DHT22;11810;51.178;3.878;2023-02-15T03:37:56;-0.30;99.90
23283;DHT22;11810;51.178;3.878;2023-02-15T03:40:29;-0.30;99.90
23283;DHT22;11810;51.178;3.878;2023-02-15T03:44:04;-0.30;99.90
23283;DHT22;11810;51.178;3.878;2023-02-15T03:46:34;-0.40;99.90
23283;DHT22;11810;51.178;3.878;2023-02-15T03:52:41;-0.30;99.90
23283;DHT22;11810;51.178;3.878;2023-02-15T03:55:07;-0.20;99.90
23283;DHT22;11810;51.178;3.878;2023-02-15T03:57:35;-0.20;99.90
23283;DHT22;11810;51.178;3.878;2023-02-15T04:00:25;-0.20;99.90
23283;DHT22;11810;51.178;3.878;2023-02-15T04:05:44;-0.30;99.90
23283;DHT22;11810;51.178;3.878;2023-02-15T04:08:11;-0.30;99.90
23283;DHT22;11810;51.178;3.878;2023-02-15T04:10:37;-0.20;99.90
23283;DHT22;11810;51.178;3.878;2023-02-15T04:13:19;-0.20;99.90
23283;DHT22;11810;51.178;3.878;2023-02-15T04:15:45;-0.20;99.90
23283;DHT22;11810;51.178;3.878;2023-02-15T04:18:40;-0.30;99.90
23283;DHT22;11810;51.178;3.878;2023-02-15T04:21:44;-0.40;99.90
23283;DHT22;11810;51.178;3.878;2023-02-15T04:24:28;-0.50;99.90
23283;DHT22;11810;51.178;3.878;2023-02-15T04:27:13;-0.40;99.90
23283;DHT22;11810;51.178;3.878;2023-02-15T04:29:39;-0.40;99.90
23283;DHT22;11810;51.178;3.878;2023-02-15T04:32:04;-0.30;99.90
23283;DHT22;11810;51.178;3.878;2023-02-15T04:34:30;-0.30;99.90
23283;DHT22;11810;51.178;3.878;2023-02-15T04:36:56;-0.30;99.90
23283;DHT22;11810;51.178;3.878;2023-02-15T04:39:22;-0.20;99.90
23283;DHT22;11810;51.178;3.878;2023-02-15T04:41:48;-0.20;99.90
23283;DHT22;11810;51.178;3.878;2023-02-15T04:44:14;-0.30;99.90
23283;DHT22;11810;51.178;3.878;2023-02-15T04:46:40;-0.20;99.90
23283;DHT22;11810;51.178;3.878;2023-02-15T04:49:07;-0.20;99.90
23283;DHT22;11810;51.178;3.878;2023-02-15T04:51:33;-0.20;99.90
23283;DHT22;11810;51.178;3.878;2023-02-15T04:53:59;0.00;99.90
23283;DHT22;11810;51.178;3.878;2023-02-15T04:58:49;0.00;99.90
23283;DHT22;11810;51.178;3.878;2023-02-15T05:01:15;0.00;99.90
23283;DHT22;11810;51.178;3.878;2023-02-15T05:03:41;0.00;99.90
23283;DHT22;11810;51.178;3.878;2023-02-15T05:06:07;-0.30;99.90
23283;DHT22;11810;51.178;3.878;2023-02-15T05:08:33;-0.40;99.90
23283;DHT22;11810;51.178;3.878;2023-02-15T05:12:51;-0.40;99.90
23283;DHT22;11810;51.178;3.878;2023-02-15T05:15:52;-0.40;99.90
23283;DHT22;11810;51.178;3.878;2023-02-15T05:18:19;-0.40;99.90
23283;DHT22;11810;51.178;3.878;2023-02-15T05:20:46;-0.40;99.90
23283;DHT22;11810;51.178;3.878;2023-02-15T05:23:12;-0.50;99.90
23283;DHT22;11810;51.178;3.878;2023-02-15T05:25:37;-0.40;99.90
23283;DHT22;11810;51.178;3.878;2023-02-15T05:28:24;-0.30;99.90
23283;DHT22;11810;51.178;3.878;2023-02-15T05:33:27;-0.40;99.90
23283;DHT22;11810;51.178;3.878;2023-02-15T05:35:53;-0.40;99.90
23283;DHT22;11810;51.178;3.878;2023-02-15T05:38:19;-0.40;99.90
23283;DHT22;11810;51.178;3.878;2023-02-15T05:40:45;-0.30;99.90
23283;DHT22;11810;51.178;3.878;2023-02-15T05:43:11;-0.30;99.90
23283;DHT22;11810;51.178;3.878;2023-02-15T05:45:36;-0.40;99.90
23283;DHT22;11810;51.178;3.878;2023-02-15T05:48:02;-0.40;99.90
23283;DHT22;11810;51.178;3.878;2023-02-15T05:50:28;-0.50;99.90
23283;DHT22;11810;51.178;3.878;2023-02-15T05:52:54;-0.40;99.90
23283;DHT22;11810;51.178;3.878;2023-02-15T05:58:56;-0.30;99.90
23283;DHT22;11810;51.178;3.878;2023-02-15T06:03:32;-0.20;99.90
23283;DHT22;11810;51.178;3.878;2023-02-15T06:05:58;-0.20;99.90
23283;DHT22;11810;51.178;3.878;2023-02-15T06:08:24;-0.10;99.90
23283;DHT22;11810;51.178;3.878;2023-02-15T06:10:50;0.00;99.90
23283;DHT22;11810;51.178;3.878;2023-02-15T06:13:16;0.00;99.90
23283;DHT22;11810;51.178;3.878;2023-02-15T06:15:42;-0.10;99.90
23283;DHT22;11810;51.178;3.878;2023-02-15T06:18:08;-0.10;99.90
23283;DHT22;11810;51.178;3.878;2023-02-15T06:20:33;-0.10;99.90
23283;DHT22;11810;51.178;3.878;2023-02-15T06:22:59;-0.10;99.90
23283;DHT22;11810;51.178;3.878;2023-02-15T06:25:25;-0.20;99.90
23283;DHT22;11810;51.178;3.878;2023-02-15T06:27:51;-0.20;99.90
23283;DHT22;11810;51.178;3.878;2023-02-15T06:30:17;-0.20;99.90
23283;DHT22;11810;51.178;3.878;2023-02-15T06:32:43;-0.30;99.90
23283;DHT22;11810;51.178;3.878;2023-02-15T06:35:09;-0.30;99.90
23283;DHT22;11810;51.178;3.878;2023-02-15T06:37:35;-0.40;99.90
23283;DHT22;11810;51.178;3.878;2023-02-15T06:40:01;-0.40;99.90
23283;DHT22;11810;51.178;3.878;2023-02-15T06:42:27;-0.40;99.90
23283;DHT22;11810;51.178;3.878;2023-02-15T06:44:53;-0.30;99.90
23283;DHT22;11810;51.178;3.878;2023-02-15T06:47:19;-0.30;99.90
23283;DHT22;11810;51.178;3.878;2023-02-15T06:49:45;-0.30;99.90
23283;DHT22;11810;51.178;3.878;2023-02-15T06:52:11;-0.30;99.90
23283;DHT22;11810;51.178;3.878;2023-02-15T06:54:37;-0.20;99.90
23283;DHT22;11810;51.178;3.878;2023-02-15T06:57:03;-0.20;99.90
23283;DHT22;11810;51.178;3.878;2023-02-15T06:59:28;-0.20;99.90
23283;DHT22;11810;51.178;3.878;2023-02-15T07:01:54;-0.20;99.90
23283;DHT22;11810;51.178;3.878;2023-02-15T07:04:20;-0.20;99.90
23283;DHT22;11810;51.178;3.878;2023-02-15T07:06:46;-0.20;99.90
23283;DHT22;11810;51.178;3.878;2023-02-15T07:09:12;-0.30;99.90
23283;DHT22;11810;51.178;3.878;2023-02-15T07:11:38;-0.20;99.90
23283;DHT22;11810;51.178;3.878;2023-02-15T07:14:23;-0.10;99.90
23283;DHT22;11810;51.178;3.878;2023-02-15T07:16:48;0.00;99.90
23283;DHT22;11810;51.178;3.878;2023-02-15T07:19:14;0.10;99.90
23283;DHT22;11810;51.178;3.878;2023-02-15T07:21:40;0.10;99.90
23283;DHT22;11810;51.178;3.878;2023-02-15T07:24:06;0.20;99.90
23283;DHT22;11810;51.178;3.878;2023-02-15T07:26:33;0.20;99.90
23283;DHT22;11810;51.178;3.878;2023-02-15T07:28:59;0.30;99.90
23283;DHT22;11810;51.178;3.878;2023-02-15T07:31:25;0.30;99.90
23283;DHT22;11810;51.178;3.878;2023-02-15T07:33:51;0.30;99.90
23283;DHT22;11810;51.178;3.878;2023-02-15T07:36:16;0.40;99.90
23283;DHT22;11810;51.178;3.878;2023-02-15T07:38:42;0.50;99.90
23283;DHT22;11810;51.178;3.878;2023-02-15T07:41:14;0.50;99.90
23283;DHT22;11810;51.178;3.878;2023-02-15T07:43:42;0.60;99.90
23283;DHT22;11810;51.178;3.878;2023-02-15T07:46:14;0.70;99.90
23283;DHT22;11810;51.178;3.878;2023-02-15T07:48:41;0.70;99.90
23283;DHT22;11810;51.178;3.878;2023-02-15T07:51:14;0.60;99.90
23283;DHT22;11810;51.178;3.878;2023-02-15T07:53:41;0.80;99.90
23283;DHT22;11810;51.178;3.878;2023-02-15T07:56:11;0.90;99.90
23283;DHT22;11810;51.178;3.878;2023-02-15T07:58:38;1.00;99.90
23283;DHT22;11810;51.178;3.878;2023-02-15T08:01:53;1.10;99.90
23283;DHT22;11810;51.178;3.878;2023-02-15T08:04:21;1.20;99.90
23283;DHT22;11810;51.178;3.878;2023-02-15T08:06:47;1.20;99.90
23283;DHT22;11810;51.178;3.878;2023-02-15T08:09:17;1.20;99.90
23283;DHT22;11810;51.178;3.878;2023-02-15T08:11:43;1.40;99.90
23283;DHT22;11810;51.178;3.878;2023-02-15T08:14:20;1.50;99.90
23283;DHT22;11810;51.178;3.878;2023-02-15T08:16:52;1.70;99.90
23283;DHT22;11810;51.178;3.878;2023-02-15T08:19:22;1.90;99.90
23283;DHT22;11810;51.178;3.878;2023-02-15T08:21:57;2.00;99.90
23283;DHT22;11810;51.178;3.878;2023-02-15T08:24:25;2.30;99.90
23283;DHT22;11810;51.178;3.878;2023-02-15T08:26:51;2.60;99.90
23283;DHT22;11810;51.178;3.878;2023-02-15T08:29:20;2.70;99.90
23283;DHT22;11810;51.178;3.878;2023-02-15T08:31:48;2.90;99.90
23283;DHT22;11810;51.178;3.878;2023-02-15T08:34:17;3.20;99.90
23283;DHT22;11810;51.178;3.878;2023-02-15T08:36:43;3.60;99.90
23283;DHT22;11810;51.178;3.878;2023-02-15T08:39:13;3.90;99.90
23283;DHT22;11810;51.178;3.878;2023-02-15T08:41:42;4.20;99.90
23283;DHT22;11810;51.178;3.878;2023-02-15T08:44:09;4.70;99.90
23283;DHT22;11810;51.178;3.878;2023-02-15T08:46:41;4.90;99.90
23283;DHT22;11810;51.178;3.878;2023-02-15T08:49:09;5.10;99.90
23283;DHT22;11810;51.178;3.878;2023-02-15T08:53:22;5.70;99.90
23283;DHT22;11810;51.178;3.878;2023-02-15T08:55:58;6.30;99.90
23283;DHT22;11810;51.178;3.878;2023-02-15T09:00:23;7.60;99.90
23283;DHT22;11810;51.178;3.878;2023-02-15T09:02:49;8.50;99.90
23283;DHT22;11810;51.178;3.878;2023-02-15T09:05:15;8.90;99.90
23283;DHT22;11810;51.178;3.878;2023-02-15T09:07:41;9.10;99.90
23283;DHT22;11810;51.178;3.878;2023-02-15T09:10:07;9.30;99.90
23283;DHT22;11810;51.178;3.878;2023-02-15T09:12:33;9.70;99.90
23283;DHT22;11810;51.178;3.878;2023-02-15T09:14:59;10.00;99.90
23283;DHT22;11810;51.178;3.878;2023-02-15T09:17:25;10.30;99.90
23283;DHT22;11810;51.178;3.878;2023-02-15T09:19:51;10.80;99.90
23283;DHT22;11810;51.178;3.878;2023-02-15T09:22:17;10.90;99.90
23283;DHT22;11810;51.178;3.878;2023-02-15T09:24:43;11.10;99.90
23283;DHT22;11810;51.178;3.878;2023-02-15T09:27:09;11.30;99.90
23283;DHT22;11810;51.178;3.878;2023-02-15T09:29:35;11.30;99.90
23283;DHT22;11810;51.178;3.878;2023-02-15T09:32:00;11.20;99.90
23283;DHT22;11810;51.178;3.878;2023-02-15T09:34:26;11.30;99.90
23283;DHT22;11810;51.178;3.878;2023-02-15T09:36:52;11.80;99.90
23283;DHT22;11810;51.178;3.878;2023-02-15T09:39:24;12.20;99.90
23283;DHT22;11810;51.178;3.878;2023-02-15T09:56:12;14.20;99.90
23283;DHT22;11810;51.178;3.878;2023-02-15T10:06:55;14.00;99.90
23283;DHT22;11810;51.178;3.878;2023-02-15T10:09:48;14.50;99.90
23283;DHT22;11810;51.178;3.878;2023-02-15T10:12:36;14.90;99.90
23283;DHT22;11810;51.178;3.878;2023-02-15T10:18:09;15.20;99.90
23283;DHT22;11810;51.178;3.878;2023-02-15T10:21:00;15.50;99.90
23283;DHT22;11810;51.178;3.878;2023-02-15T10:26:47;14.90;99.90
23283;DHT22;11810;51.178;3.878;2023-02-15T10:29:35;15.00;99.90
23283;DHT22;11810;51.178;3.878;2023-02-15T10:32:24;14.80;99.90
23283;DHT22;11810;51.178;3.878;2023-02-15T10:35:01;14.60;99.90
23283;DHT22;11810;51.178;3.878;2023-02-15T10:37:53;14.50;99.90
23283;DHT22;11810;51.178;3.878;2023-02-15T10:56:54;13.60;99.90
23283;DHT22;11810;51.178;3.878;2023-02-15T10:59:53;14.20;99.90
23283;DHT22;11810;51.178;3.878;2023-02-15T11:07:44;16.00;99.90
23283;DHT22;11810;51.178;3.878;2023-02-15T11:10:32;16.60;99.90
23283;DHT22;11810;51.178;3.878;2023-02-15T11:13:09;16.80;99.90
23283;DHT22;11810;51.178;3.878;2023-02-15T11:15:39;16.70;99.90
23283;DHT22;11810;51.178;3.878;2023-02-15T11:20:53;15.50;99.90
23283;DHT22;11810;51.178;3.878;2023-02-15T11:23:21;15.00;99.90
23283;DHT22;11810;51.178;3.878;2023-02-15T11:27:40;14.50;99.90
23283;DHT22;11810;51.178;3.878;2023-02-15T11:30:13;14.40;99.90
23283;DHT22;11810;51.178;3.878;2023-02-15T11:32:45;14.30;99.90
23283;DHT22;11810;51.178;3.878;2023-02-15T11:37:51;14.30;99.90
23283;DHT22;11810;51.178;3.878;2023-02-15T11:40:20;14.70;99.90
23283;DHT22;11810;51.178;3.878;2023-02-15T11:42:49;15.00;99.90
23283;DHT22;11810;51.178;3.878;2023-02-15T11:45:27;15.40;99.90
23283;DHT22;11810;51.178;3.878;2023-02-15T11:47:54;16.50;99.90
23283;DHT22;11810;51.178;3.878;2023-02-15T11:50:24;17.00;99.90
23283;DHT22;11810;51.178;3.878;2023-02-15T11:53:01;17.50;99.90
23283;DHT22;11810;51.178;3.878;2023-02-15T11:55:29;17.80;99.90
23283;DHT22;11810;51.178;3.878;2023-02-15T12:00:47;16.50;99.90
23283;DHT22;11810;51.178;3.878;2023-02-15T12:11:52;16.70;99.90
23283;DHT22;11810;51.178;3.878;2023-02-15T12:14:18;17.50;99.90
23283;DHT22;11810;51.178;3.878;2023-02-15T12:16:50;17.80;99.90
23283;DHT22;11810;51.178;3.878;2023-02-15T12:19:32;17.80;99.90
23283;DHT22;11810;51.178;3.878;2023-02-15T12:22:01;18.50;99.90
23283;DHT22;11810;51.178;3.878;2023-02-15T12:24:34;18.80;99.90
23283;DHT22;11810;51.178;3.878;2023-02-15T12:29:41;18.10;99.90
23283;DHT22;11810;51.178;3.878;2023-02-15T12:32:24;17.80;99.90
23283;DHT22;11810;51.178;3.878;2023-02-15T12:34:54;17.70;99.90
23283;DHT22;11810;51.178;3.878;2023-02-15T12:37:27;17.20;99.90
23283;DHT22;11810;51.178;3.878;2023-02-15T12:39:57;17.20;99.90
23283;DHT22;11810;51.178;3.878;2023-02-15T12:42:24;17.10;99.90
23283;DHT22;11810;51.178;3.878;2023-02-15T12:45:02;16.70;99.90
23283;DHT22;11810;51.178;3.878;2023-02-15T12:47:30;16.50;99.90
23283;DHT22;11810;51.178;3.878;2023-02-15T12:50:21;16.50;99.90
23283;DHT22;11810;51.178;3.878;2023-02-15T12:52:49;16.70;99.90
23283;DHT22;11810;51.178;3.878;2023-02-15T12:55:27;16.70;99.90
23283;DHT22;11810;51.178;3.878;2023-02-15T12:58:16;16.90;99.90
23283;DHT22;11810;51.178;3.878;2023-02-15T13:00:43;16.80;99.90
23283;DHT22;11810;51.178;3.878;2023-02-15T13:03:18;16.70;99.90
23283;DHT22;11810;51.178;3.878;2023-02-15T13:05:50;17.00;99.90
23283;DHT22;11810;51.178;3.878;2023-02-15T13:08:25;17.20;99.90
23283;DHT22;11810;51.178;3.878;2023-02-15T13:11:02;17.30;99.90
23283;DHT22;11810;51.178;3.878;2023-02-15T13:13:34;17.10;99.90
23283;DHT22;11810;51.178;3.878;2023-02-15T13:16:13;16.90;99.90
23283;DHT22;11810;51.178;3.878;2023-02-15T13:18:43;16.10;99.90
23283;DHT22;11810;51.178;3.878;2023-02-15T13:21:21;16.30;99.90
23283;DHT22;11810;51.178;3.878;2023-02-15T13:23:57;16.60;99.90
23283;DHT22;11810;51.178;3.878;2023-02-15T13:26:28;17.00;99.90
23283;DHT22;11810;51.178;3.878;2023-02-15T13:29:08;17.20;99.90
23283;DHT22;11810;51.178;3.878;2023-02-15T13:31:35;17.20;99.90
23283;DHT22;11810;51.178;3.878;2023-02-15T13:56:02;15.80;99.90
23283;DHT22;11810;51.178;3.878;2023-02-15T14:01:22;15.80;99.90
23283;DHT22;11810;51.178;3.878;2023-02-15T14:09:35;15.60;99.90
23283;DHT22;11810;51.178;3.878;2023-02-15T14:32:25;15.40;99.90
23283;DHT22;11810;51.178;3.878;2023-02-15T14:35:04;15.60;99.90
23283;DHT22;11810;51.178;3.878;2023-02-15T14:49:34;14.80;99.90
23283;DHT22;11810;51.178;3.878;2023-02-15T14:52:11;14.70;99.90
23283;DHT22;11810;51.178;3.878;2023-02-15T15:02:22;14.70;99.90
23283;DHT22;11810;51.178;3.878;2023-02-15T15:18:07;13.90;99.90
23283;DHT22;11810;51.178;3.878;2023-02-15T15:20:51;13.60;99.90
23283;DHT22;11810;51.178;3.878;2023-02-15T15:25:51;13.20;99.90
23283;DHT22;11810;51.178;3.878;2023-02-15T15:42:32;12.70;99.90
23283;DHT22;11810;51.178;3.878;2023-02-15T15:48:31;12.40;99.90
23283;DHT22;11810;51.178;3.878;2023-02-15T15:51:02;12.20;99.90
23283;DHT22;11810;51.178;3.878;2023-02-15T15:53:32;12.10;99.90
23283;DHT22;11810;51.178;3.878;2023-02-15T15:56:06;12.10;99.90
23283;DHT22;11810;51.178;3.878;2023-02-15T15:58:34;12.10;99.90
23283;DHT22;11810;51.178;3.878;2023-02-15T16:03:32;11.90;99.90
23283;DHT22;11810;51.178;3.878;2023-02-15T16:05:58;11.90;99.90
23283;DHT22;11810;51.178;3.878;2023-02-15T16:10:56;11.60;99.90
23283;DHT22;11810;51.178;3.878;2023-02-15T16:13:22;11.50;99.90
23283;DHT22;11810;51.178;3.878;2023-02-15T16:15:52;11.40;99.90
23283;DHT22;11810;51.178;3.878;2023-02-15T16:18:24;11.30;99.90
23283;DHT22;11810;51.178;3.878;2023-02-15T16:20:57;11.40;99.90
23283;DHT22;11810;51.178;3.878;2023-02-15T16:28:51;11.10;99.90
23283;DHT22;11810;51.178;3.878;2023-02-15T16:31:21;11.00;99.90
23283;DHT22;11810;51.178;3.878;2023-02-15T16:33:53;10.90;99.90
23283;DHT22;11810;51.178;3.878;2023-02-15T16:36:24;10.80;99.90
23283;DHT22;11810;51.178;3.878;2023-02-15T16:43:18;10.80;99.90
23283;DHT22;11810;51.178;3.878;2023-02-15T16:45:45;10.80;99.90
23283;DHT22;11810;51.178;3.878;2023-02-15T16:48:19;10.80;99.90
23283;DHT22;11810;51.178;3.878;2023-02-15T16:50:51;10.80;99.90
23283;DHT22;11810;51.178;3.878;2023-02-15T16:53:27;10.70;99.90
23283;DHT22;11810;51.178;3.878;2023-02-15T16:55:59;10.50;99.90
23283;DHT22;11810;51.178;3.878;2023-02-15T17:01:03;10.40;99.90
23283;DHT22;11810;51.178;3.878;2023-02-15T17:03:31;10.30;99.90
23283;DHT22;11810;51.178;3.878;2023-02-15T17:05:59;10.20;99.90
23283;DHT22;11810;51.178;3.878;2023-02-15T17:08:33;10.20;99.90
23283;DHT22;11810;51.178;3.878;2023-02-15T17:13:26;10.10;99.90
23283;DHT22;11810;51.178;3.878;2023-02-15T17:20:57;9.50;99.90
23283;DHT22;11810;51.178;3.878;2023-02-15T17:25:57;9.40;99.90
23283;DHT22;11810;51.178;3.878;2023-02-15T17:28:27;9.30;99.90
23283;DHT22;11810;51.178;3.878;2023-02-15T17:30:54;9.10;99.90
23283;DHT22;11810;51.178;3.878;2023-02-15T17:41:30;8.70;99.90
23283;DHT22;11810;51.178;3.878;2023-02-15T17:43:57;8.60;99.90
23283;DHT22;11810;51.178;3.878;2023-02-15T17:46:24;8.50;99.90
23283;DHT22;11810;51.178;3.878;2023-02-15T17:48:54;8.50;99.90
23283;DHT22;11810;51.178;3.878;2023-02-15T17:51:21;8.60;99.90
23283;DHT22;11810;51.178;3.878;2023-02-15T17:53:48;8.60;99.90
23283;DHT22;11810;51.178;3.878;2023-02-15T17:56:33;8.60;99.90
23283;DHT22;11810;51.178;3.878;2023-02-15T17:58:59;8.70;99.90
23283;DHT22;11810;51.178;3.878;2023-02-15T18:01:25;8.60;99.90
23283;DHT22;11810;51.178;3.878;2023-02-15T18:04:13;8.60;99.90
23283;DHT22;11810;51.178;3.878;2023-02-15T18:06:59;8.50;99.90
23283;DHT22;11810;51.178;3.878;2023-02-15T18:09:43;8.60;99.90
23283;DHT22;11810;51.178;3.878;2023-02-15T18:12:30;8.60;99.90
23283;DHT22;11810;51.178;3.878;2023-02-15T18:14:57;8.30;99.90
23283;DHT22;11810;51.178;3.878;2023-02-15T18:17:37;8.10;99.90
23283;DHT22;11810;51.178;3.878;2023-02-15T18:20:33;7.90;99.90
23283;DHT22;11810;51.178;3.878;2023-02-15T18:22:53;7.80;99.90
23283;DHT22;11810;51.178;3.878;2023-02-15T18:25:21;7.80;99.90
23283;DHT22;11810;51.178;3.878;2023-02-15T18:27:48;7.70;99.90
23283;DHT22;11810;51.178;3.878;2023-02-15T18:30:17;7.70;99.90
23283;DHT22;11810;51.178;3.878;2023-02-15T18:32:44;7.60;99.90
23283;DHT22;11810;51.178;3.878;2023-02-15T18:35:23;7.50;99.90
23283;DHT22;11810;51.178;3.878;2023-02-15T18:37:51;7.60;99.90
23283;DHT22;11810;51.178;3.878;2023-02-15T18:40:19;7.50;99.90
23283;DHT22;11810;51.178;3.878;2023-02-15T18:42:45;7.50;99.90
23283;DHT22;11810;51.178;3.878;2023-02-15T18:45:16;7.40;99.90
23283;DHT22;11810;51.178;3.878;2023-02-15T18:47:44;7.40;99.90
23283;DHT22;11810;51.178;3.878;2023-02-15T18:50:11;7.30;99.90
23283;DHT22;11810;51.178;3.878;2023-02-15T18:52:38;7.20;99.90
23283;DHT22;11810;51.178;3.878;2023-02-15T18:55:18;7.20;99.90
23283;DHT22;11810;51.178;3.878;2023-02-15T18:57:45;7.30;99.90
23283;DHT22;11810;51.178;3.878;2023-02-15T19:00:26;7.30;99.90
23283;DHT22;11810;51.178;3.878;2023-02-15T19:02:56;7.40;99.90
23283;DHT22;11810;51.178;3.878;2023-02-15T19:05:23;7.10;99.90
23283;DHT22;11810;51.178;3.878;2023-02-15T19:07:52;7.20;99.90
23283;DHT22;11810;51.178;3.878;2023-02-15T19:10:20;7.10;99.90
23283;DHT22;11810;51.178;3.878;2023-02-15T19:12:47;6.90;99.90
23283;DHT22;11810;51.178;3.878;2023-02-15T19:15:15;6.90;99.90
23283;DHT22;11810;51.178;3.878;2023-02-15T19:17:41;6.90;99.90
23283;DHT22;11810;51.178;3.878;2023-02-15T19:20:13;6.90;99.90
23283;DHT22;11810;51.178;3.878;2023-02-15T19:22:39;6.90;99.90
23283;DHT22;11810;51.178;3.878;2023-02-15T19:25:05;6.90;99.90
23283;DHT22;11810;51.178;3.878;2023-02-15T19:28:44;6.90;99.90
23283;DHT22;11810;51.178;3.878;2023-02-15T19:32:45;6.80;99.90
23283;DHT22;11810;51.178;3.878;2023-02-15T19:35:19;6.70;99.90
23283;DHT22;11810;51.178;3.878;2023-02-15T19:37:49;6.60;99.90
23283;DHT22;11810;51.178;3.878;2023-02-15T19:42:43;6.60;99.90
23283;DHT22;11810;51.178;3.878;2023-02-15T19:45:14;6.50;99.90
23283;DHT22;11810;51.178;3.878;2023-02-15T19:47:40;6.50;99.90
23283;DHT22;11810;51.178;3.878;2023-02-15T19:50:12;6.40;99.90
23283;DHT22;11810;51.178;3.878;2023-02-15T19:52:38;6.30;99.90
23283;DHT22;11810;51.178;3.878;2023-02-15T19:55:04;6.50;99.90
23283;DHT22;11810;51.178;3.878;2023-02-15T19:57:30;6.50;99.90
23283;DHT22;11810;51.178;3.878;2023-02-15T19:59:56;6.60;99.90
23283;DHT22;11810;51.178;3.878;2023-02-15T20:02:21;6.40;99.90
23283;DHT22;11810;51.178;3.878;2023-02-15T20:04:47;6.40;99.90
23283;DHT22;11810;51.178;3.878;2023-02-15T20:07:27;6.30;99.90
23283;DHT22;11810;51.178;3.878;2023-02-15T20:09:53;6.30;99.90
23283;DHT22;11810;51.178;3.878;2023-02-15T20:12:24;6.20;99.90
23283;DHT22;11810;51.178;3.878;2023-02-15T20:14:51;6.30;99.90
23283;DHT22;11810;51.178;3.878;2023-02-15T20:19:27;6.30;99.90
23283;DHT22;11810;51.178;3.878;2023-02-15T20:21:53;6.10;99.90
23283;DHT22;11810;51.178;3.878;2023-02-15T20:24:21;6.00;99.90
23283;DHT22;11810;51.178;3.878;2023-02-15T20:26:48;6.00;99.90
23283;DHT22;11810;51.178;3.878;2023-02-15T20:29:15;6.00;99.90
23283;DHT22;11810;51.178;3.878;2023-02-15T20:31:43;5.90;99.90
23283;DHT22;11810;51.178;3.878;2023-02-15T20:34:53;5.90;99.90
23283;DHT22;11810;51.178;3.878;2023-02-15T20:37:23;5.80;99.90
23283;DHT22;11810;51.178;3.878;2023-02-15T20:39:51;5.70;99.90
23283;DHT22;11810;51.178;3.878;2023-02-15T20:43:54;5.70;99.90
23283;DHT22;11810;51.178;3.878;2023-02-15T20:46:20;5.70;99.90
23283;DHT22;11810;51.178;3.878;2023-02-15T20:48:46;5.70;99.90
23283;DHT22;11810;51.178;3.878;2023-02-15T20:51:17;5.70;99.90
23283;DHT22;11810;51.178;3.878;2023-02-15T20:53:44;5.90;99.90
23283;DHT22;11810;51.178;3.878;2023-02-15T20:56:20;5.80;99.90